createdAt,value
2022-11-06T00:01:12.990Z,9.53
2022-11-06T00:03:40.149Z,9.69
2022-11-06T00:06:43.685Z,9.37
2022-11-06T00:09:12.970Z,9.62
2022-11-06T00:11:40.891Z,9.63
2022-11-06T00:14:07.779Z,9.61
2022-11-06T00:16:34.647Z,9.87
2022-11-06T00:19:02.434Z,9.81
2022-11-06T00:21:30.691Z,10.08
2022-11-06T00:24:00.107Z,9.64
2022-11-06T00:26:28.516Z,9.46
2022-11-06T00:28:56.257Z,9.49
2022-11-06T00:31:37.085Z,9.60
2022-11-06T00:34:07.405Z,9.32
2022-11-06T00:36:34.559Z,9.56
2022-11-06T00:39:01.321Z,9.35
2022-11-06T00:41:28.220Z,9.24
2022-11-06T00:44:02.552Z,9.49
2022-11-06T00:46:29.586Z,9.34
2022-11-06T00:48:56.640Z,9.37
2022-11-06T00:51:28.079Z,9.43
2022-11-06T00:53:56.963Z,9.28
2022-11-06T00:56:23.854Z,9.23
2022-11-06T00:58:50.701Z,9.22
2022-11-06T01:01:24.565Z,9.24
2022-11-06T01:03:59.723Z,8.95
2022-11-06T01:06:30.255Z,9.04
2022-11-06T01:08:57.606Z,8.98
2022-11-06T01:11:28.499Z,9.10
2022-11-06T01:13:59.435Z,8.99
2022-11-06T01:16:26.947Z,9.07
2022-11-06T01:18:55.247Z,9.17
2022-11-06T01:21:23.424Z,9.30
2022-11-06T01:23:55.204Z,9.12
2022-11-06T01:26:37.273Z,9.20
2022-11-06T01:29:06.423Z,9.33
2022-11-06T01:31:34.149Z,9.15
2022-11-06T01:34:02.032Z,9.20
2022-11-06T01:36:29.694Z,9.37
2022-11-06T01:38:59.546Z,9.39
2022-11-06T01:41:43.436Z,9.44
2022-11-06T01:44:40.715Z,9.07
2022-11-06T01:47:24.172Z,9.10
2022-11-06T01:49:56.974Z,9.19
2022-11-06T01:52:25.342Z,9.10
2022-11-06T01:54:57.373Z,9.12
2022-11-06T01:57:24.687Z,9.18
2022-11-06T01:59:52.657Z,9.16
2022-11-06T02:02:19.886Z,9.08
2022-11-06T02:04:48.477Z,8.89
2022-11-06T02:07:16.759Z,9.08
2022-11-06T02:09:43.864Z,8.91
2022-11-06T02:12:32.350Z,8.91
2022-11-06T02:15:26.076Z,9.09
2022-11-06T02:18:32.800Z,9.04
2022-11-06T02:21:17.500Z,9.08
2022-11-06T02:24:05.525Z,8.91
2022-11-06T02:26:44.116Z,8.88
2022-11-06T02:29:19.849Z,8.97
2022-11-06T02:31:49.186Z,9.06
2022-11-06T02:34:19.233Z,9.11
2022-11-06T02:36:53.965Z,9.28
2022-11-06T02:39:24.470Z,9.07
2022-11-06T02:41:54.258Z,9.12
2022-11-06T02:44:25.863Z,9.04
2022-11-06T02:47:03.925Z,9.33
2022-11-06T02:49:52.972Z,9.21
2022-11-06T02:52:29.251Z,8.84
2022-11-06T02:55:03.995Z,9.10
2022-11-06T02:57:36.253Z,8.90
2022-11-06T03:00:09.351Z,8.84
2022-11-06T03:03:00.503Z,8.62
2022-11-06T03:05:33.184Z,8.95
2022-11-06T03:08:12.126Z,8.98
2022-11-06T03:10:59.572Z,9.31
2022-11-06T03:13:44.056Z,9.23
2022-11-06T03:16:42.683Z,9.05
2022-11-06T03:19:21.371Z,9.07
2022-11-06T03:22:12.164Z,8.85
2022-11-06T03:24:55.466Z,8.90
2022-11-06T03:27:40.140Z,8.97
2022-11-06T03:30:15.258Z,9.13
2022-11-06T03:32:50.940Z,8.90
2022-11-06T03:35:33.524Z,9.19
2022-11-06T03:38:19.649Z,9.14
2022-11-06T03:40:52.966Z,9.19
2022-11-06T03:43:24.768Z,8.84
2022-11-06T03:45:53.499Z,9.01
2022-11-06T03:48:30.485Z,9.07
2022-11-06T03:51:04.879Z,8.87
2022-11-06T03:53:53.649Z,9.13
2022-11-06T03:56:34.591Z,9.04
2022-11-06T03:59:03.622Z,9.10
2022-11-06T04:01:36.150Z,9.20
2022-11-06T04:04:07.164Z,9.32
2022-11-06T04:06:41.362Z,9.49
2022-11-06T04:09:29.752Z,9.60
2022-11-06T04:12:18.623Z,9.43
2022-11-06T04:14:48.913Z,9.62
2022-11-06T04:17:17.549Z,9.53
2022-11-06T04:19:50.990Z,9.59
2022-11-06T04:22:36.323Z,9.54
2022-11-06T04:25:30.680Z,9.72
2022-11-06T04:28:17.648Z,9.97
2022-11-06T04:31:07.549Z,10.04
2022-11-06T04:33:58.912Z,10.05
2022-11-06T04:36:39.979Z,10.13
2022-11-06T04:39:11.901Z,9.27
2022-11-06T04:42:02.228Z,10.02
2022-11-06T04:44:37.216Z,9.71
2022-11-06T04:47:07.656Z,9.77
2022-11-06T04:49:37.027Z,9.41
2022-11-06T04:52:07.802Z,9.59
2022-11-06T04:54:35.480Z,9.79
2022-11-06T04:57:02.987Z,9.72
2022-11-06T04:59:33.325Z,9.74
2022-11-06T05:01:59.909Z,9.91
2022-11-06T05:04:26.566Z,10.09
2022-11-06T05:06:53.218Z,9.97
2022-11-06T05:09:19.779Z,10.13
2022-11-06T05:11:46.317Z,9.76
2022-11-06T05:14:12.939Z,9.82
2022-11-06T05:16:39.580Z,9.58
2022-11-06T05:19:06.250Z,9.56
2022-11-06T05:21:51.281Z,9.77
2022-11-06T05:24:17.922Z,10.12
2022-11-06T05:26:44.647Z,10.21
2022-11-06T05:29:12.285Z,9.80
2022-11-06T05:31:38.894Z,10.11
2022-11-06T05:34:06.093Z,10.26
2022-11-06T05:36:33.029Z,10.12
2022-11-06T05:38:59.599Z,10.02
2022-11-06T05:41:26.444Z,9.60
2022-11-06T05:43:53.186Z,9.83
2022-11-06T05:46:42.701Z,9.12
2022-11-06T05:49:06.625Z,9.78
2022-11-06T05:51:33.147Z,9.91
2022-11-06T05:53:59.781Z,10.03
2022-11-06T05:56:26.363Z,10.18
2022-11-06T05:58:53.014Z,10.08
2022-11-06T06:01:19.681Z,10.26
2022-11-06T06:03:46.373Z,10.20
2022-11-06T06:06:12.887Z,9.96
2022-11-06T06:08:39.456Z,10.07
2022-11-06T06:11:09.835Z,10.23
2022-11-06T06:13:39.693Z,10.31
2022-11-06T06:16:07.051Z,10.31
2022-11-06T06:18:33.699Z,10.27
2022-11-06T06:21:00.298Z,9.98
2022-11-06T06:23:27.102Z,10.07
2022-11-06T06:25:53.677Z,9.78
2022-11-06T06:28:20.206Z,9.77
2022-11-06T06:30:46.765Z,9.82
2022-11-06T06:33:13.341Z,9.62
2022-11-06T06:35:39.860Z,9.31
2022-11-06T06:38:06.474Z,9.16
2022-11-06T06:40:33.251Z,9.15
2022-11-06T06:42:59.795Z,9.34
2022-11-06T06:45:26.516Z,9.35
2022-11-06T06:47:53.265Z,9.23
2022-11-06T06:50:19.937Z,9.51
2022-11-06T06:52:47.328Z,9.42
2022-11-06T06:55:14.195Z,9.30
2022-11-06T06:57:40.787Z,9.38
2022-11-06T07:00:08.237Z,9.86
2022-11-06T07:02:34.925Z,9.41
2022-11-06T07:05:01.544Z,9.31
2022-11-06T07:07:28.141Z,9.56
2022-11-06T07:09:54.671Z,9.52
2022-11-06T07:12:21.402Z,9.51
2022-11-06T07:14:47.984Z,9.31
2022-11-06T07:17:14.574Z,9.44
2022-11-06T07:19:41.118Z,8.97
2022-11-06T07:22:07.782Z,8.79
2022-11-06T07:24:34.310Z,8.87
2022-11-06T07:27:00.847Z,8.76
2022-11-06T07:29:27.511Z,8.59
2022-11-06T07:31:54.101Z,9.05
2022-11-06T07:34:20.659Z,8.57
2022-11-06T07:36:47.364Z,8.87
2022-11-06T07:39:13.985Z,8.79
2022-11-06T07:41:40.621Z,8.59
2022-11-06T07:44:07.175Z,8.67
2022-11-06T07:46:33.710Z,8.69
2022-11-06T07:49:00.314Z,8.38
2022-11-06T07:51:26.860Z,8.62
2022-11-06T07:53:53.557Z,8.49
2022-11-06T07:56:20.086Z,8.56
2022-11-06T07:58:46.652Z,8.44
2022-11-06T08:01:18.904Z,8.44
2022-11-06T08:03:45.987Z,8.83
2022-11-06T08:06:12.544Z,8.73
2022-11-06T08:08:39.421Z,8.37
2022-11-06T08:11:08.302Z,8.64
2022-11-06T08:13:35.407Z,8.64
2022-11-06T08:16:13.640Z,8.43
2022-11-06T08:18:41.224Z,8.41
2022-11-06T08:21:08.246Z,8.91
2022-11-06T08:23:36.019Z,8.76
2022-11-06T08:26:05.916Z,8.46
2022-11-06T08:28:32.621Z,8.58
2022-11-06T08:31:04.193Z,8.79
2022-11-06T08:33:30.738Z,8.90
2022-11-06T08:36:00.562Z,8.67
2022-11-06T08:38:27.231Z,8.73
2022-11-06T08:40:54.101Z,8.59
2022-11-06T08:43:24.100Z,9.05
2022-11-06T08:45:50.691Z,8.79
2022-11-06T08:48:17.253Z,9.05
2022-11-06T08:50:43.852Z,9.18
2022-11-06T08:53:10.834Z,9.08
2022-11-06T08:55:38.978Z,9.42
2022-11-06T08:58:07.291Z,9.85
2022-11-06T09:00:34.249Z,9.61
2022-11-06T09:03:13.471Z,9.22
2022-11-06T09:05:44.141Z,9.36
2022-11-06T09:08:11.745Z,9.49
2022-11-06T09:10:39.730Z,9.65
2022-11-06T09:13:06.893Z,9.50
2022-11-06T09:15:33.859Z,9.37
2022-11-06T09:18:00.687Z,9.44
2022-11-06T09:20:27.787Z,9.72
2022-11-06T09:22:55.067Z,9.64
2022-11-06T09:25:21.927Z,9.57
2022-11-06T09:27:58.742Z,9.80
2022-11-06T09:30:28.267Z,10.18
2022-11-06T09:32:57.532Z,9.91
2022-11-06T09:35:25.846Z,9.62
2022-11-06T09:37:52.723Z,9.74
2022-11-06T09:40:29.832Z,9.74
2022-11-06T09:43:50.320Z,9.93
2022-11-06T09:46:22.897Z,10.01
2022-11-06T09:49:12.617Z,9.54
2022-11-06T09:51:47.436Z,9.65
2022-11-06T09:54:26.021Z,9.51
2022-11-06T09:56:57.886Z,9.69
2022-11-06T09:59:25.627Z,9.73
2022-11-06T10:01:55.962Z,9.54
2022-11-06T10:04:34.790Z,9.64
2022-11-06T10:07:01.588Z,9.81
2022-11-06T10:09:29.171Z,9.43
2022-11-06T10:12:16.994Z,9.41
2022-11-06T10:14:59.642Z,9.47
2022-11-06T10:17:48.229Z,9.67
2022-11-06T10:20:26.760Z,9.81
2022-11-06T10:23:11.043Z,9.74
2022-11-06T10:25:44.825Z,9.54
2022-11-06T10:28:17.422Z,9.67
2022-11-06T10:30:53.788Z,9.56
2022-11-06T10:33:26.269Z,9.44
2022-11-06T10:36:06.212Z,9.56
2022-11-06T10:38:39.144Z,9.66
2022-11-06T10:41:14.491Z,9.50
2022-11-06T10:43:58.822Z,9.68
2022-11-06T10:46:33.999Z,9.69
2022-11-06T10:49:03.991Z,9.95
2022-11-06T10:51:57.585Z,9.71
2022-11-06T10:54:32.604Z,9.99
2022-11-06T10:57:32.735Z,10.03
2022-11-06T10:59:59.409Z,9.98
2022-11-06T11:02:35.792Z,10.21
2022-11-06T11:05:02.799Z,9.95
2022-11-06T11:07:32.449Z,10.08
2022-11-06T11:09:59.101Z,10.21
2022-11-06T11:12:31.214Z,10.25
2022-11-06T11:15:05.273Z,10.60
2022-11-06T11:17:31.977Z,10.47
2022-11-06T11:19:59.506Z,9.72
2022-11-06T11:22:31.913Z,9.97
2022-11-06T11:25:04.827Z,10.15
2022-11-06T11:27:44.484Z,9.71
2022-11-06T11:30:23.605Z,9.85
2022-11-06T11:32:52.558Z,10.28
2022-11-06T11:35:28.378Z,10.34
2022-11-06T11:38:13.584Z,10.02
2022-11-06T11:40:41.563Z,10.51
2022-11-06T11:43:30.439Z,10.71
2022-11-06T11:46:09.263Z,10.49
2022-11-06T11:48:58.307Z,10.50
2022-11-06T11:51:35.781Z,10.56
2022-11-06T11:54:25.668Z,10.56
2022-11-06T11:57:05.158Z,10.60
2022-11-06T11:59:44.853Z,10.45
2022-11-06T12:02:36.752Z,10.00
2022-11-06T12:05:10.804Z,10.24
2022-11-06T12:07:45.964Z,10.32
2022-11-06T12:10:36.717Z,10.37
2022-11-06T12:13:07.256Z,9.89
2022-11-06T12:15:54.354Z,9.72
2022-11-06T12:18:27.160Z,10.05
2022-11-06T12:21:03.424Z,10.22
2022-11-06T12:23:32.955Z,10.65
2022-11-06T12:26:07.781Z,10.76
2022-11-06T12:28:37.950Z,10.83
2022-11-06T12:31:14.701Z,10.51
2022-11-06T12:34:05.634Z,10.03
2022-11-06T12:36:37.007Z,10.12
2022-11-06T12:39:11.965Z,9.89
2022-11-06T12:41:44.487Z,10.32
2022-11-06T12:44:14.849Z,10.17
2022-11-06T12:47:04.978Z,10.19
2022-11-06T12:50:08.166Z,10.50
2022-11-06T12:52:55.967Z,10.45
2022-11-06T12:55:36.878Z,10.31
2022-11-06T12:58:36.318Z,9.70
2022-11-06T13:01:18.139Z,9.76
2022-11-06T13:04:17.951Z,10.15
2022-11-06T13:07:10.467Z,10.43
2022-11-06T13:09:54.420Z,10.12
2022-11-06T13:12:27.553Z,9.79
2022-11-06T13:15:24.479Z,9.40
2022-11-06T13:17:59.752Z,9.72
2022-11-06T13:20:49.389Z,9.53
2022-11-06T13:23:39.477Z,9.82
2022-11-06T13:26:12.150Z,9.53
2022-11-06T13:28:44.959Z,10.01
2022-11-06T13:31:14.811Z,9.98
2022-11-06T13:33:49.974Z,10.44
2022-11-06T13:36:18.506Z,9.99
2022-11-06T13:38:49.753Z,10.13
2022-11-06T13:41:32.351Z,9.89
2022-11-06T13:44:02.471Z,10.12
2022-11-06T13:46:34.783Z,9.83
2022-11-06T13:49:29.344Z,9.76
2022-11-06T13:52:18.362Z,9.65
2022-11-06T13:55:04.744Z,9.78
2022-11-06T13:57:43.674Z,9.62
2022-11-06T14:00:23.348Z,9.91
2022-11-06T14:02:56.583Z,9.80
2022-11-06T14:05:59.661Z,10.22
2022-11-06T14:08:32.090Z,10.41
2022-11-06T14:11:03.997Z,10.38
2022-11-06T14:13:35.838Z,10.53
2022-11-06T14:16:27.134Z,10.24
2022-11-06T14:18:57.054Z,10.16
2022-11-06T14:21:28.656Z,10.29
2022-11-06T14:24:05.780Z,10.28
2022-11-06T14:26:51.487Z,10.17
2022-11-06T14:29:27.469Z,10.31
2022-11-06T14:32:18.477Z,10.41
2022-11-06T14:34:45.520Z,9.99
2022-11-06T14:37:21.012Z,9.89
2022-11-06T14:39:56.483Z,9.89
2022-11-06T14:42:26.871Z,10.01
2022-11-06T14:44:57.228Z,10.20
2022-11-06T14:47:34.705Z,10.07
2022-11-06T14:50:19.147Z,10.15
2022-11-06T14:52:56.991Z,10.39
2022-11-06T14:55:31.290Z,10.12
2022-11-06T14:58:23.140Z,10.44
2022-11-06T15:01:05.222Z,10.66
2022-11-06T15:03:36.013Z,10.06
2022-11-06T15:06:21.810Z,10.49
2022-11-06T15:08:48.456Z,10.36
2022-11-06T15:11:30.676Z,10.39
2022-11-06T15:14:03.409Z,10.64
2022-11-06T15:16:40.469Z,10.82
2022-11-06T15:19:14.257Z,10.74
2022-11-06T15:22:06.854Z,10.66
2022-11-06T15:24:40.173Z,10.37
2022-11-06T15:27:18.064Z,10.09
2022-11-06T15:29:48.043Z,10.26
2022-11-06T15:32:29.176Z,9.96
2022-11-06T15:35:02.359Z,10.35
2022-11-06T15:37:55.775Z,10.29
2022-11-06T15:40:38.163Z,10.19
2022-11-06T15:43:26.314Z,10.41
2022-11-06T15:46:06.795Z,10.78
2022-11-06T15:48:34.208Z,10.42
2022-11-06T15:51:00.931Z,10.47
2022-11-06T15:53:28.961Z,10.29
2022-11-06T15:56:03.207Z,10.22
2022-11-06T15:58:35.939Z,10.34
2022-11-06T16:01:05.283Z,10.62
2022-11-06T16:03:44.734Z,10.52
2022-11-06T16:06:11.631Z,10.79
2022-11-06T16:08:39.033Z,10.73
2022-11-06T16:11:13.334Z,10.80
2022-11-06T16:13:41.383Z,10.75
2022-11-06T16:16:38.481Z,10.61
2022-11-06T16:19:16.829Z,10.81
2022-11-06T16:21:52.832Z,10.46
2022-11-06T16:24:19.490Z,10.94
2022-11-06T16:26:52.492Z,10.71
2022-11-06T16:29:30.604Z,10.62
2022-11-06T16:32:02.477Z,10.98
2022-11-06T16:34:32.031Z,10.40
2022-11-06T16:37:03.571Z,10.87
2022-11-06T16:39:47.851Z,11.15
2022-11-06T16:52:53.292Z,10.45
2022-11-06T16:55:28.246Z,10.76
2022-11-06T16:58:00.766Z,11.12
2022-11-06T17:00:31.187Z,11.20
2022-11-06T17:03:18.225Z,11.30
2022-11-06T17:05:53.344Z,10.85
2022-11-06T17:08:26.593Z,10.38
2022-11-06T17:10:58.161Z,10.63
2022-11-06T17:13:49.627Z,10.88
2022-11-06T17:16:22.681Z,10.69
2022-11-06T17:18:49.811Z,10.99
2022-11-06T17:21:27.488Z,11.09
2022-11-06T17:24:00.240Z,11.33
2022-11-06T17:26:32.705Z,11.17
2022-11-06T17:29:00.314Z,11.07
2022-11-06T17:31:27.338Z,11.12
2022-11-06T17:33:54.322Z,11.22
2022-11-06T17:36:26.905Z,10.92
2022-11-06T17:38:55.136Z,10.85
2022-11-06T17:41:31.145Z,10.94
2022-11-06T17:43:57.920Z,11.22
2022-11-06T17:46:33.591Z,11.49
2022-11-06T17:49:00.770Z,11.61
2022-11-06T17:51:46.034Z,11.67
2022-11-06T17:54:13.468Z,11.67
2022-11-06T17:56:40.407Z,11.71
2022-11-06T17:59:09.007Z,11.73
2022-11-06T18:01:35.884Z,11.76
2022-11-06T18:04:02.818Z,11.74
2022-11-06T18:06:29.554Z,11.81
2022-11-06T18:09:01.775Z,11.76
2022-11-06T18:11:29.083Z,11.61
2022-11-06T18:13:56.272Z,11.53
2022-11-06T18:16:29.226Z,11.59
2022-11-06T18:18:57.412Z,11.74
2022-11-06T18:21:25.117Z,11.76
2022-11-06T18:23:52.062Z,11.68
2022-11-06T18:26:23.047Z,11.66
2022-11-06T18:28:50.642Z,11.55
2022-11-06T18:31:18.251Z,11.52
2022-11-06T18:33:47.538Z,11.26
2022-11-06T18:36:15.973Z,11.31
2022-11-06T18:38:44.338Z,11.54
2022-11-06T18:41:14.076Z,11.65
2022-11-06T18:43:41.168Z,11.67
2022-11-06T18:46:13.292Z,11.51
2022-11-06T18:48:44.449Z,11.47
2022-11-06T18:51:32.362Z,11.60
2022-11-06T18:54:01.893Z,11.72
2022-11-06T18:56:28.610Z,11.58
2022-11-06T18:58:55.408Z,11.57
2022-11-06T19:01:26.039Z,11.55
2022-11-06T19:03:53.165Z,11.09
2022-11-06T19:06:21.063Z,11.31
2022-11-06T19:08:50.009Z,10.85
2022-11-06T19:11:18.579Z,11.10
2022-11-06T19:13:48.325Z,10.94
2022-11-06T19:16:21.019Z,10.77
2022-11-06T19:21:32.286Z,10.56
2022-11-06T19:24:05.166Z,10.67
2022-11-06T19:26:34.776Z,11.17
2022-11-06T19:29:01.451Z,11.08
2022-11-06T19:31:29.804Z,10.97
2022-11-06T19:33:58.736Z,11.26
2022-11-06T19:36:25.570Z,11.38
2022-11-06T19:38:52.522Z,11.07
2022-11-06T19:41:19.624Z,11.21
2022-11-06T19:43:46.202Z,11.10
2022-11-06T19:46:12.788Z,11.11
2022-11-06T19:48:39.537Z,10.78
2022-11-06T19:51:10.519Z,10.91
2022-11-06T19:53:37.395Z,10.87
2022-11-06T19:56:05.581Z,11.09
2022-11-06T19:58:32.634Z,10.79
2022-11-06T20:00:59.411Z,10.97
2022-11-06T20:03:26.324Z,10.52
2022-11-06T20:05:54.103Z,10.52
2022-11-06T20:08:20.749Z,10.47
2022-11-06T20:10:47.304Z,10.44
2022-11-06T20:13:14.266Z,10.80
2022-11-06T20:15:41.028Z,10.65
2022-11-06T20:18:09.919Z,10.84
2022-11-06T20:20:37.091Z,10.72
2022-11-06T20:23:06.875Z,10.96
2022-11-06T20:25:33.597Z,10.91
2022-11-06T20:28:00.168Z,10.50
2022-11-06T20:30:30.608Z,10.35
2022-11-06T20:32:57.251Z,10.82
2022-11-06T20:35:23.853Z,10.84
2022-11-06T20:37:50.516Z,10.78
2022-11-06T20:40:17.184Z,10.67
2022-11-06T20:42:43.832Z,10.67
2022-11-06T20:45:10.444Z,10.91
2022-11-06T20:47:37.103Z,11.06
2022-11-06T20:50:03.922Z,11.17
2022-11-06T20:52:30.660Z,10.88
2022-11-06T20:54:57.438Z,10.66
2022-11-06T20:57:24.045Z,10.87
2022-11-06T20:59:50.543Z,10.52
2022-11-06T21:02:17.328Z,10.65
2022-11-06T21:04:44.149Z,10.72
2022-11-06T21:07:10.695Z,10.72
2022-11-06T21:09:37.391Z,10.74
2022-11-06T21:12:04.205Z,10.60
2022-11-06T21:14:30.865Z,10.72
2022-11-06T21:16:57.458Z,10.68
2022-11-06T21:19:24.314Z,10.70
2022-11-06T21:21:51.231Z,10.65
2022-11-06T21:24:17.971Z,10.59
2022-11-06T21:26:44.681Z,10.61
2022-11-06T21:29:11.817Z,10.60
2022-11-06T21:31:45.651Z,10.60
2022-11-06T21:34:15.338Z,10.56
2022-11-06T21:36:42.206Z,10.54
2022-11-06T21:39:12.706Z,10.50
2022-11-06T21:41:39.766Z,10.47
2022-11-06T21:44:07.631Z,10.57
2022-11-06T21:46:34.573Z,10.55
2022-11-06T21:49:01.143Z,10.63
2022-11-06T21:51:30.266Z,10.58
2022-11-06T21:54:15.519Z,10.57
2022-11-06T21:56:42.828Z,10.57
2022-11-06T21:59:12.575Z,10.56
2022-11-06T22:01:40.072Z,10.60
2022-11-06T22:04:07.354Z,10.55
2022-11-06T22:06:34.296Z,10.54
2022-11-06T22:09:02.751Z,10.49
2022-11-06T22:11:32.373Z,10.50
2022-11-06T22:14:02.626Z,10.49
2022-11-06T22:16:32.532Z,10.49
2022-11-06T22:18:59.682Z,10.50
2022-11-06T22:21:28.245Z,10.43
2022-11-06T22:23:55.526Z,10.44
2022-11-06T22:26:24.143Z,10.42
2022-11-06T22:29:02.201Z,10.42
2022-11-06T22:31:29.540Z,10.41
2022-11-06T22:33:57.036Z,10.38
2022-11-06T22:36:24.584Z,10.37
2022-11-06T22:38:51.933Z,10.34
2022-11-06T22:41:21.211Z,10.35
2022-11-06T22:43:47.951Z,10.38
2022-11-06T22:46:18.195Z,10.34
2022-11-06T22:48:45.360Z,10.31
2022-11-06T22:51:33.516Z,10.33
2022-11-06T22:54:01.076Z,10.27
2022-11-06T22:56:29.271Z,10.28
2022-11-06T22:58:58.086Z,10.33
2022-11-06T23:01:27.036Z,10.36
2022-11-06T23:03:57.765Z,10.38
2022-11-06T23:06:26.024Z,10.38
2022-11-06T23:08:53.155Z,10.42
2022-11-06T23:11:21.067Z,10.29
2022-11-06T23:13:47.708Z,10.16
2022-11-06T23:16:17.884Z,10.21
2022-11-06T23:18:45.038Z,10.29
2022-11-06T23:21:12.512Z,10.18
2022-11-06T23:23:39.201Z,10.22
2022-11-06T23:26:17.341Z,10.33
2022-11-06T23:28:45.301Z,10.26
2022-11-06T23:31:13.933Z,10.18
2022-11-06T23:33:41.041Z,10.28
2022-11-06T23:36:09.549Z,10.28
2022-11-06T23:38:36.752Z,10.32
2022-11-06T23:41:29.187Z,10.29
2022-11-06T23:43:56.933Z,10.14
2022-11-06T23:46:26.442Z,10.21
2022-11-06T23:48:53.223Z,10.31
2022-11-06T23:51:20.091Z,10.30
2022-11-06T23:53:46.643Z,10.37
2022-11-06T23:56:13.873Z,10.31
2022-11-06T23:58:41.131Z,10.33
